Clark, WY

10:15 PM MST on January 19, 2017 (GMT -0700)
| | Change Station
Active Advisory: Special Statement

Elev -9999 ft 0.00 °N, 0.00 °E | Updated 9 minutes ago

Overcast
Overcast
°F
Feels Like °F
N
Wind Variable Wind from North
Gusts mph

Today
High -- | Low -- °F
--% Chance of Precip.
Yesterday
High -- | Low -- °F
Precip. -- in
Pressure 29.54 in
Visibility 10.0 miles
Clouds Clear
Dew Point Not available.
Humidity Not available.
Rainfall --
Snow Depth Not available.
7:48 AM 5:07 PM
Waning Gibbous, 47% visible
METAR KCOD 200456Z AUTO 00000KT 10SM CLR 03/M05 A2952 RMK AO2 SLP001 T00281050
Pressure 29.54 in
Visibility 10.0 miles
Clouds Clear
Dew Point Not available.
Humidity Not available.
Rainfall --
Snow Depth Not available.
7:48 AM 5:07 PM
Waning Gibbous, 47% visible
METAR KCOD 200456Z AUTO 00000KT 10SM CLR 03/M05 A2952 RMK AO2 SLP001 T00281050

Get Your Daily Forecast Email!

Thanks for signing up!

Be on the lookout for a verification email in your inbox.

You'll start receiving the daily forecast at 8 AM.

×

10-Day Weather Forecast

Almanac

Astronomy

Jan. 19, 2017 Rise Set
Actual Time
Civil Twilight
Nautical Twilight
Astronomical Twilight
Moon
Length of Visible Light
Length of Day
Tomorrow will be .
, % of the Moon is Illuminated

Today's Extremes

State Highs State Lows

Community

WunderPhotos

Upload Photos

1,962,540 photos uploaded!

WunderBlog® & News

Nearby

Air Quality

  Air Quality AQ Index Pollutant
Not available.

Snow Depth

Station Depth Elevation

Earthquake Activity

City Distance Mag. Time & Date
Minimum magnitude displayed is 2.5.

Coastal Water Temperatures

Place Temperature

Stations

Nearby Weather Stations

Station Location Temp. Windchill Dew Point Humidity Wind Precip. Elev Updated Type
                   

Watches & Warnings

Special Statement
Issued: 12:43 PM MST Jan. 19, 2017 – National Weather Service

Light snowfall will begin across the Cody foothills tonight
becoming moderate at times by Friday morning before decreasing
around noon on Friday. Generally expect from 1 to 3 inches of
accumulating snowfall by Friday evening.



1243 PM MST Thu Jan 19 2017

Light snowfall will begin across the Cody foothills tonight
becoming moderate at times by Friday morning before decreasing
around noon on Friday. Generally expect from 1 to 3 inches of
accumulating snowfall by Friday evening.